sensor_id;sensor_type;location;lat;lon;timestamp;pressure;altitude;pressure_sealevel;temperature;humidity
11212;BME280;5663;50.864;12.096;2022-09-27T00:01:27;97520.81;;;13.50;69.76
11212;BME280;5663;50.864;12.096;2022-09-27T00:03:55;97511.19;;;13.50;70.10
11212;BME280;5663;50.864;12.096;2022-09-27T00:06:27;97503.19;;;13.52;69.89
11212;BME280;5663;50.864;12.096;2022-09-27T00:08:57;97501.28;;;13.54;69.54
11212;BME280;5663;50.864;12.096;2022-09-27T00:11:29;97484.81;;;13.44;69.57
11212;BME280;5663;50.864;12.096;2022-09-27T00:14:00;97473.53;;;13.53;69.31
11212;BME280;5663;50.864;12.096;2022-09-27T00:16:32;97488.88;;;13.56;69.49
11212;BME280;5663;50.864;12.096;2022-09-27T00:19:04;97487.63;;;13.60;68.91
11212;BME280;5663;50.864;12.096;2022-09-27T00:21:34;97477.34;;;13.59;68.95
11212;BME280;5663;50.864;12.096;2022-09-27T00:24:03;97469.06;;;13.63;68.62
11212;BME280;5663;50.864;12.096;2022-09-27T00:38:03;97435.00;;;13.55;68.15
11212;BME280;5663;50.864;12.096;2022-09-27T00:40:39;97439.94;;;13.58;68.39
11212;BME280;5663;50.864;12.096;2022-09-27T00:43:22;97443.22;;;13.60;68.36
11212;BME280;5663;50.864;12.096;2022-09-27T00:49:53;97424.28;;;13.58;68.40
11212;BME280;5663;50.864;12.096;2022-09-27T00:52:28;97422.66;;;13.57;68.53
11212;BME280;5663;50.864;12.096;2022-09-27T00:55:17;97418.38;;;13.56;68.34
11212;BME280;5663;50.864;12.096;2022-09-27T00:57:51;97411.06;;;13.60;68.07
11212;BME280;5663;50.864;12.096;2022-09-27T01:00:22;97413.56;;;13.61;68.38
11212;BME280;5663;50.864;12.096;2022-09-27T01:02:52;97413.41;;;13.63;68.28
11212;BME280;5663;50.864;12.096;2022-09-27T01:05:28;97411.75;;;13.62;68.51
11212;BME280;5663;50.864;12.096;2022-09-27T01:07:57;97408.34;;;13.61;68.75
11212;BME280;5663;50.864;12.096;2022-09-27T01:10:30;97397.88;;;13.61;68.63
11212;BME280;5663;50.864;12.096;2022-09-27T01:13:06;97396.75;;;13.64;68.82
11212;BME280;5663;50.864;12.096;2022-09-27T01:15:48;97398.53;;;13.63;68.75
11212;BME280;5663;50.864;12.096;2022-09-27T01:18:29;97393.47;;;13.62;68.88
11212;BME280;5663;50.864;12.096;2022-09-27T01:21:38;97389.06;;;13.62;69.23
11212;BME280;5663;50.864;12.096;2022-09-27T01:24:31;97395.28;;;13.61;69.65
11212;BME280;5663;50.864;12.096;2022-09-27T01:30:32;97388.28;;;13.52;70.00
11212;BME280;5663;50.864;12.096;2022-09-27T01:33:17;97385.31;;;13.47;70.13
11212;BME280;5663;50.864;12.096;2022-09-27T01:36:01;97366.66;;;13.42;70.23
11212;BME280;5663;50.864;12.096;2022-09-27T01:38:41;97368.00;;;13.46;70.14
11212;BME280;5663;50.864;12.096;2022-09-27T01:41:24;97364.69;;;13.44;69.83
11212;BME280;5663;50.864;12.096;2022-09-27T01:43:59;97360.59;;;13.41;70.39
11212;BME280;5663;50.864;12.096;2022-09-27T01:46:35;97356.66;;;13.37;70.62
11212;BME280;5663;50.864;12.096;2022-09-27T01:49:09;97354.47;;;13.33;70.64
11212;BME280;5663;50.864;12.096;2022-09-27T01:51:44;97353.50;;;13.34;70.35
11212;BME280;5663;50.864;12.096;2022-09-27T01:54:18;97353.50;;;13.34;70.08
11212;BME280;5663;50.864;12.096;2022-09-27T01:56:51;97354.31;;;13.34;70.37
11212;BME280;5663;50.864;12.096;2022-09-27T01:59:23;97354.47;;;13.33;70.57
11212;BME280;5663;50.864;12.096;2022-09-27T02:02:01;97346.63;;;13.33;70.61
11212;BME280;5663;50.864;12.096;2022-09-27T02:04:32;97343.06;;;13.34;70.63
11212;BME280;5663;50.864;12.096;2022-09-27T02:07:07;97337.84;;;13.34;70.57
11212;BME280;5663;50.864;12.096;2022-09-27T02:09:39;97344.69;;;13.35;70.51
11212;BME280;5663;50.864;12.096;2022-09-27T02:12:13;97340.44;;;13.34;70.61
11212;BME280;5663;50.864;12.096;2022-09-27T02:14:45;97319.47;;;13.25;71.12
11212;BME280;5663;50.864;12.096;2022-09-27T02:17:22;97332.63;;;13.34;71.03
11212;BME280;5663;50.864;12.096;2022-09-27T02:19:56;97321.47;;;13.31;71.19
11212;BME280;5663;50.864;12.096;2022-09-27T02:22:33;97318.34;;;13.28;71.59
11212;BME280;5663;50.864;12.096;2022-09-27T02:25:09;97314.91;;;13.27;71.62
11212;BME280;5663;50.864;12.096;2022-09-27T02:27:46;97294.19;;;13.16;71.41
11212;BME280;5663;50.864;12.096;2022-09-27T02:30:18;97311.63;;;13.25;71.64
11212;BME280;5663;50.864;12.096;2022-09-27T02:32:48;97284.19;;;13.12;72.07
11212;BME280;5663;50.864;12.096;2022-09-27T02:35:18;97286.81;;;13.12;72.15
11212;BME280;5663;50.864;12.096;2022-09-27T02:37:50;97307.94;;;13.18;72.26
11212;BME280;5663;50.864;12.096;2022-09-27T02:40:20;97307.94;;;13.18;72.33
11212;BME280;5663;50.864;12.096;2022-09-27T02:42:49;97297.50;;;13.18;72.32
11212;BME280;5663;50.864;12.096;2022-09-27T02:45:19;97299.13;;;13.19;72.28
11212;BME280;5663;50.864;12.096;2022-09-27T02:47:59;97299.13;;;13.19;72.54
11212;BME280;5663;50.864;12.096;2022-09-27T02:50:43;97294.72;;;13.20;72.36
11212;BME280;5663;50.864;12.096;2022-09-27T02:53:24;97288.47;;;13.13;72.81
11212;BME280;5663;50.864;12.096;2022-09-27T02:56:04;97292.56;;;13.15;72.53
11212;BME280;5663;50.864;12.096;2022-09-27T02:58:45;97278.06;;;13.03;72.53
11212;BME280;5663;50.864;12.096;2022-09-27T03:01:20;97290.09;;;13.14;72.47
11212;BME280;5663;50.864;12.096;2022-09-27T03:03:58;97296.13;;;13.14;72.42
11212;BME280;5663;50.864;12.096;2022-09-27T03:06:30;97271.88;;;13.04;72.34
11212;BME280;5663;50.864;12.096;2022-09-27T03:09:00;97296.13;;;13.14;72.26
11212;BME280;5663;50.864;12.096;2022-09-27T03:11:29;97289.56;;;13.10;72.56
11212;BME280;5663;50.864;12.096;2022-09-27T03:13:58;97284.63;;;13.07;72.52
11212;BME280;5663;50.864;12.096;2022-09-27T03:16:29;97290.91;;;13.14;72.45
11212;BME280;5663;50.864;12.096;2022-09-27T03:18:58;97282.72;;;13.09;72.75
11212;BME280;5663;50.864;12.096;2022-09-27T03:21:28;97294.19;;;13.16;72.53
11212;BME280;5663;50.864;12.096;2022-09-27T03:23:56;97291.75;;;13.15;72.71
11212;BME280;5663;50.864;12.096;2022-09-27T03:26:24;97294.50;;;13.13;72.66
11212;BME280;5663;50.864;12.096;2022-09-27T03:28:53;97284.63;;;13.07;72.81
11212;BME280;5663;50.864;12.096;2022-09-27T03:31:21;97178.47;;;12.35;72.85
11212;BME280;5663;50.864;12.096;2022-09-27T03:33:49;97293.81;;;13.11;73.18
11212;BME280;5663;50.864;12.096;2022-09-27T03:36:21;97287.94;;;13.09;73.00
11212;BME280;5663;50.864;12.096;2022-09-27T03:38:52;97282.72;;;13.09;73.06
11212;BME280;5663;50.864;12.096;2022-09-27T03:41:22;97288.88;;;13.08;73.37
11212;BME280;5663;50.864;12.096;2022-09-27T03:44:03;97281.03;;;13.08;72.94
11212;BME280;5663;50.864;12.096;2022-09-27T03:46:34;97268.97;;;13.07;73.29
11212;BME280;5663;50.864;12.096;2022-09-27T03:49:02;97273.53;;;13.05;73.41
11212;BME280;5663;50.864;12.096;2022-09-27T03:51:33;97270.06;;;13.04;73.59
11212;BME280;5663;50.864;12.096;2022-09-27T03:54:02;97267.63;;;13.03;73.45
11212;BME280;5663;50.864;12.096;2022-09-27T03:56:30;97272.84;;;13.03;73.59
11212;BME280;5663;50.864;12.096;2022-09-27T03:58:58;97269.56;;;13.01;73.68
11212;BME280;5663;50.864;12.096;2022-09-27T04:01:29;97261.75;;;13.01;73.96
11212;BME280;5663;50.864;12.096;2022-09-27T04:03:57;97254.19;;;12.98;73.92
11212;BME280;5663;50.864;12.096;2022-09-27T04:06:26;97250.91;;;12.96;73.97
11212;BME280;5663;50.864;12.096;2022-09-27T04:08:56;97235.31;;;12.86;74.08
11212;BME280;5663;50.864;12.096;2022-09-27T04:11:26;97254.19;;;12.98;74.35
11212;BME280;5663;50.864;12.096;2022-09-27T04:13:55;97251.88;;;12.95;74.39
11212;BME280;5663;50.864;12.096;2022-09-27T04:16:24;97247.34;;;12.97;74.52
11212;BME280;5663;50.864;12.096;2022-09-27T04:18:53;97250.09;;;12.95;74.74
11212;BME280;5663;50.864;12.096;2022-09-27T04:21:21;97244.34;;;12.92;74.75
11212;BME280;5663;50.864;12.096;2022-09-27T04:23:51;97233.25;;;12.90;74.91
11212;BME280;5663;50.864;12.096;2022-09-27T04:26:24;97240.78;;;12.93;74.89
11212;BME280;5663;50.864;12.096;2022-09-27T04:28:53;97242.69;;;12.91;74.80
11212;BME280;5663;50.864;12.096;2022-09-27T04:31:22;97235.97;;;12.88;74.99
11212;BME280;5663;50.864;12.096;2022-09-27T04:33:52;97217.41;;;12.73;75.13
11212;BME280;5663;50.864;12.096;2022-09-27T04:36:22;97248.19;;;12.88;75.30
11212;BME280;5663;50.864;12.096;2022-09-27T04:38:55;97200.88;;;12.55;74.86
11212;BME280;5663;50.864;12.096;2022-09-27T04:41:27;97243.56;;;12.81;75.29
11212;BME280;5663;50.864;12.096;2022-09-27T04:43:56;97256.72;;;12.90;75.01
11212;BME280;5663;50.864;12.096;2022-09-27T04:46:27;97257.53;;;12.90;75.05
11212;BME280;5663;50.864;12.096;2022-09-27T04:48:57;97249.75;;;12.80;74.76
11212;BME280;5663;50.864;12.096;2022-09-27T04:51:28;97251.69;;;12.78;75.39
11212;BME280;5663;50.864;12.096;2022-09-27T04:53:57;97258.91;;;12.85;75.33
11212;BME280;5663;50.864;12.096;2022-09-27T04:56:29;97266.63;;;12.86;75.23
11212;BME280;5663;50.864;12.096;2022-09-27T04:58:57;97266.47;;;12.88;75.08
11212;BME280;5663;50.864;12.096;2022-09-27T05:01:26;97261.25;;;12.88;75.25
11212;BME280;5663;50.864;12.096;2022-09-27T05:03:55;97260.59;;;12.86;75.60
11212;BME280;5663;50.864;12.096;2022-09-27T05:06:27;97262.22;;;12.87;75.69
11212;BME280;5663;50.864;12.096;2022-09-27T05:08:58;97254.66;;;12.83;75.28
11212;BME280;5663;50.864;12.096;2022-09-27T05:11:31;97262.22;;;12.87;75.23
11212;BME280;5663;50.864;12.096;2022-09-27T05:14:09;97253.41;;;12.88;75.31
11212;BME280;5663;50.864;12.096;2022-09-27T05:16:43;97252.59;;;12.87;75.38
11212;BME280;5663;50.864;12.096;2022-09-27T05:19:14;97247.66;;;12.84;75.50
11212;BME280;5663;50.864;12.096;2022-09-27T05:21:42;97252.88;;;12.84;75.60
11212;BME280;5663;50.864;12.096;2022-09-27T05:24:17;97251.41;;;12.81;75.66
11212;BME280;5663;50.864;12.096;2022-09-27T05:26:48;97248.34;;;12.86;75.61
11212;BME280;5663;50.864;12.096;2022-09-27T05:29:18;97247.97;;;12.81;76.00
11212;BME280;5663;50.864;12.096;2022-09-27T05:31:47;97244.66;;;12.89;75.59
11212;BME280;5663;50.864;12.096;2022-09-27T05:34:17;97237.00;;;12.77;75.96
11212;BME280;5663;50.864;12.096;2022-09-27T05:36:46;97244.41;;;12.82;76.01
11212;BME280;5663;50.864;12.096;2022-09-27T05:39:15;97260.00;;;12.92;75.95
11212;BME280;5663;50.864;12.096;2022-09-27T05:41:44;97251.22;;;12.93;75.88
11212;BME280;5663;50.864;12.096;2022-09-27T05:44:16;97252.16;;;12.92;75.83
11212;BME280;5663;50.864;12.096;2022-09-27T05:46:46;97249.28;;;12.95;75.83
11212;BME280;5663;50.864;12.096;2022-09-27T05:49:17;97247.34;;;12.97;75.87
11212;BME280;5663;50.864;12.096;2022-09-27T05:51:50;97257.78;;;12.97;75.76
11212;BME280;5663;50.864;12.096;2022-09-27T05:54:19;97240.78;;;12.93;76.05
11212;BME280;5663;50.864;12.096;2022-09-27T05:56:54;97247.03;;;13.00;75.83
11212;BME280;5663;50.864;12.096;2022-09-27T05:59:26;97230.63;;;12.90;76.28
11212;BME280;5663;50.864;12.096;2022-09-27T06:01:57;97244.97;;;13.03;76.08
11212;BME280;5663;50.864;12.096;2022-09-27T06:04:26;97222.81;;;12.90;75.67
11212;BME280;5663;50.864;12.096;2022-09-27T06:06:55;97240.47;;;12.96;76.10
11212;BME280;5663;50.864;12.096;2022-09-27T06:09:25;97255.28;;;13.05;76.10
11212;BME280;5663;50.864;12.096;2022-09-27T06:11:54;97246.59;;;13.04;76.17
11212;BME280;5663;50.864;12.096;2022-09-27T06:14:24;97254.97;;;13.08;76.39
11212;BME280;5663;50.864;12.096;2022-09-27T06:16:55;97251.41;;;13.09;76.19
11212;BME280;5663;50.864;12.096;2022-09-27T06:19:25;97254.66;;;13.11;76.42
11212;BME280;5663;50.864;12.096;2022-09-27T06:21:55;97251.09;;;13.12;76.07
11212;BME280;5663;50.864;12.096;2022-09-27T06:24:25;97250.78;;;13.15;76.21
11212;BME280;5663;50.864;12.096;2022-09-27T06:26:55;97252.44;;;13.16;76.46
11212;BME280;5663;50.864;12.096;2022-09-27T06:29:30;97255.44;;;13.21;76.24
11212;BME280;5663;50.864;12.096;2022-09-27T06:32:03;97248.56;;;13.20;76.52
11212;BME280;5663;50.864;12.096;2022-09-27T06:34:34;97264.06;;;13.31;76.77
11212;BME280;5663;50.864;12.096;2022-09-27T06:37:03;97261.69;;;13.38;76.51
11212;BME280;5663;50.864;12.096;2022-09-27T06:39:33;97243.56;;;13.37;76.44
11212;BME280;5663;50.864;12.096;2022-09-27T06:42:02;97269.75;;;13.45;76.45
11212;BME280;5663;50.864;12.096;2022-09-27T06:44:31;97260.50;;;13.50;76.24
11212;BME280;5663;50.864;12.096;2022-09-27T06:47:00;97233.41;;;13.34;76.18
11212;BME280;5663;50.864;12.096;2022-09-27T06:49:35;97252.59;;;13.42;76.56
11212;BME280;5663;50.864;12.096;2022-09-27T06:52:06;97270.84;;;13.60;76.26
11212;BME280;5663;50.864;12.096;2022-09-27T06:54:35;97269.59;;;13.64;76.12
11212;BME280;5663;50.864;12.096;2022-09-27T06:57:07;97207.59;;;13.30;76.10
11212;BME280;5663;50.864;12.096;2022-09-27T06:59:58;97272.66;;;13.77;76.13
11212;BME280;5663;50.864;12.096;2022-09-27T07:02:47;97276.34;;;13.85;76.50
11212;BME280;5663;50.864;12.096;2022-09-27T07:05:18;97279.97;;;13.92;76.63
11212;BME280;5663;50.864;12.096;2022-09-27T07:07:47;97276.59;;;13.99;76.55
11212;BME280;5663;50.864;12.096;2022-09-27T07:10:20;97272.06;;;14.01;76.26
11212;BME280;5663;50.864;12.096;2022-09-27T07:12:50;97287.28;;;14.06;76.34
11212;BME280;5663;50.864;12.096;2022-09-27T07:15:19;97287.63;;;14.11;76.04
11212;BME280;5663;50.864;12.096;2022-09-27T07:17:58;97283.38;;;14.10;76.12
11212;BME280;5663;50.864;12.096;2022-09-27T07:20:29;97295.41;;;14.21;75.87
11212;BME280;5663;50.864;12.096;2022-09-27T07:22:58;97289.03;;;14.23;75.57
11212;BME280;5663;50.864;12.096;2022-09-27T07:25:26;97220.94;;;13.81;75.14
11212;BME280;5663;50.864;12.096;2022-09-27T07:27:54;97298.59;;;14.33;74.65
11212;BME280;5663;50.864;12.096;2022-09-27T07:30:30;97302.69;;;14.35;74.79
11212;BME280;5663;50.864;12.096;2022-09-27T07:32:59;97301.84;;;14.35;75.01
11212;BME280;5663;50.864;12.096;2022-09-27T07:35:30;97316.94;;;14.41;75.14
11212;BME280;5663;50.864;12.096;2022-09-27T07:38:05;97314.34;;;14.41;74.35
11212;BME280;5663;50.864;12.096;2022-09-27T07:40:36;97319.41;;;14.42;74.42
11212;BME280;5663;50.864;12.096;2022-09-27T07:43:08;97262.47;;;14.10;74.44
11212;BME280;5663;50.864;12.096;2022-09-27T07:45:39;97317.03;;;14.49;74.30
11212;BME280;5663;50.864;12.096;2022-09-27T07:48:11;97328.84;;;14.53;74.18
11212;BME280;5663;50.864;12.096;2022-09-27T07:50:43;97329.19;;;14.58;74.28
11212;BME280;5663;50.864;12.096;2022-09-27T07:53:11;97326.28;;;14.61;74.10
11212;BME280;5663;50.864;12.096;2022-09-27T07:55:43;97325.59;;;14.59;73.50
11212;BME280;5663;50.864;12.096;2022-09-27T07:58:11;97264.16;;;14.19;73.33
11212;BME280;5663;50.864;12.096;2022-09-27T08:00:40;97335.75;;;14.62;73.04
11212;BME280;5663;50.864;12.096;2022-09-27T08:03:11;97346.50;;;14.59;73.45
11212;BME280;5663;50.864;12.096;2022-09-27T08:05:46;97346.97;;;14.54;72.83
11212;BME280;5663;50.864;12.096;2022-09-27T08:08:16;97351.59;;;14.43;72.60
11212;BME280;5663;50.864;12.096;2022-09-27T08:10:45;97370.38;;;14.38;72.34
11212;BME280;5663;50.864;12.096;2022-09-27T08:13:15;97370.75;;;14.25;72.36
11212;BME280;5663;50.864;12.096;2022-09-27T08:15:50;97334.31;;;13.88;72.25
11212;BME280;5663;50.864;12.096;2022-09-27T08:18:20;97377.78;;;14.07;72.41
11212;BME280;5663;50.864;12.096;2022-09-27T08:20:55;97386.59;;;14.06;72.60
11212;BME280;5663;50.864;12.096;2022-09-27T08:23:24;97381.94;;;14.00;72.26
11212;BME280;5663;50.864;12.096;2022-09-27T08:25:56;97360.88;;;13.84;72.29
11212;BME280;5663;50.864;12.096;2022-09-27T08:28:27;97391.56;;;13.99;72.33
11212;BME280;5663;50.864;12.096;2022-09-27T08:30:57;97391.75;;;13.98;72.29
11212;BME280;5663;50.864;12.096;2022-09-27T08:37:12;97377.16;;;13.77;72.19
11212;BME280;5663;50.864;12.096;2022-09-27T08:39:59;97410.59;;;13.92;72.01
11212;BME280;5663;50.864;12.096;2022-09-27T08:42:35;97376.63;;;13.74;71.79
11212;BME280;5663;50.864;12.096;2022-09-27T08:45:12;97411.94;;;13.96;72.04
11212;BME280;5663;50.864;12.096;2022-09-27T08:47:46;97411.38;;;14.02;72.35
11212;BME280;5663;50.864;12.096;2022-09-27T08:50:24;97421.53;;;14.05;72.49
11212;BME280;5663;50.864;12.096;2022-09-27T08:53:00;97426.59;;;14.07;72.03
11212;BME280;5663;50.864;12.096;2022-09-27T08:55:37;97426.16;;;14.11;72.15
11212;BME280;5663;50.864;12.096;2022-09-27T08:58:13;97408.16;;;14.08;72.27
11212;BME280;5663;50.864;12.096;2022-09-27T09:00:52;97429.91;;;14.26;71.54
11212;BME280;5663;50.864;12.096;2022-09-27T09:03:26;97425.72;;;14.34;71.80
11212;BME280;5663;50.864;12.096;2022-09-27T09:06:07;97421.31;;;14.34;71.33
11212;BME280;5663;50.864;12.096;2022-09-27T09:08:49;97430.22;;;14.41;70.89
11212;BME280;5663;50.864;12.096;2022-09-27T09:11:31;97427.88;;;14.38;71.03
11212;BME280;5663;50.864;12.096;2022-09-27T09:14:39;97443.81;;;14.45;71.27
11212;BME280;5663;50.864;12.096;2022-09-27T09:17:21;97437.78;;;14.44;70.71
11212;BME280;5663;50.864;12.096;2022-09-27T09:20:02;97444.88;;;14.52;70.85
11212;BME280;5663;50.864;12.096;2022-09-27T09:22:55;97442.03;;;14.63;70.99
11212;BME280;5663;50.864;12.096;2022-09-27T09:25:35;97449.34;;;14.77;71.01
11212;BME280;5663;50.864;12.096;2022-09-27T09:28:20;97441.56;;;14.86;70.74
11212;BME280;5663;50.864;12.096;2022-09-27T09:31:00;97449.75;;;14.91;70.31
11212;BME280;5663;50.864;12.096;2022-09-27T09:33:38;97442.06;;;14.89;69.41
11212;BME280;5663;50.864;12.096;2022-09-27T09:36:16;97453.34;;;14.90;69.44
11212;BME280;5663;50.864;12.096;2022-09-27T09:38:51;97447.44;;;14.88;68.53
11212;BME280;5663;50.864;12.096;2022-09-27T09:41:29;97453.66;;;14.87;68.71
11212;BME280;5663;50.864;12.096;2022-09-27T09:44:09;97453.94;;;14.84;68.52
11212;BME280;5663;50.864;12.096;2022-09-27T09:47:00;97456.50;;;14.75;68.46
11212;BME280;5663;50.864;12.096;2022-09-27T09:49:35;97460.78;;;14.76;68.95
11212;BME280;5663;50.864;12.096;2022-09-27T09:52:11;97463.69;;;14.73;69.03
11212;BME280;5663;50.864;12.096;2022-09-27T09:55:20;97438.88;;;14.60;69.04
11212;BME280;5663;50.864;12.096;2022-09-27T09:58:14;97462.06;;;14.72;69.35
11212;BME280;5663;50.864;12.096;2022-09-27T10:01:09;97470.28;;;14.77;69.39
11212;BME280;5663;50.864;12.096;2022-09-27T10:03:49;97478.78;;;14.79;69.77
11212;BME280;5663;50.864;12.096;2022-09-27T10:06:41;97474.53;;;14.78;69.99
11212;BME280;5663;50.864;12.096;2022-09-27T10:09:29;97477.97;;;14.79;69.70
11212;BME280;5663;50.864;12.096;2022-09-27T10:12:02;97466.16;;;14.75;70.10
11212;BME280;5663;50.864;12.096;2022-09-27T10:14:57;97449.81;;;14.55;70.24
11212;BME280;5663;50.864;12.096;2022-09-27T10:17:39;97474.00;;;14.75;70.44
11212;BME280;5663;50.864;12.096;2022-09-27T10:20:27;97479.69;;;14.70;70.36
11212;BME280;5663;50.864;12.096;2022-09-27T10:23:08;97477.84;;;14.63;70.60
11212;BME280;5663;50.864;12.096;2022-09-27T10:25:54;97461.59;;;14.41;70.50
11212;BME280;5663;50.864;12.096;2022-09-27T10:28:37;97490.03;;;14.54;70.88
11212;BME280;5663;50.864;12.096;2022-09-27T10:31:20;97492.09;;;14.50;70.70
11212;BME280;5663;50.864;12.096;2022-09-27T10:33:56;97494.78;;;14.41;70.78
11212;BME280;5663;50.864;12.096;2022-09-27T10:36:31;97511.31;;;14.32;70.40
11212;BME280;5663;50.864;12.096;2022-09-27T10:39:04;97508.63;;;14.23;70.71
11212;BME280;5663;50.864;12.096;2022-09-27T10:41:35;97519.41;;;14.20;70.89
11212;BME280;5663;50.864;12.096;2022-09-27T10:44:24;97516.91;;;14.19;70.81
11212;BME280;5663;50.864;12.096;2022-09-27T10:51:05;97511.03;;;14.17;71.13
11212;BME280;5663;50.864;12.096;2022-09-27T10:53:55;97509.59;;;14.22;71.07
11212;BME280;5663;50.864;12.096;2022-09-27T10:56:30;97504.75;;;14.27;71.73
11212;BME280;5663;50.864;12.096;2022-09-27T10:59:13;97508.13;;;14.38;72.26
11212;BME280;5663;50.864;12.096;2022-09-27T11:01:54;97514.81;;;14.50;72.02
11212;BME280;5663;50.864;12.096;2022-09-27T11:04:32;97512.28;;;14.58;71.97
11212;BME280;5663;50.864;12.096;2022-09-27T11:07:17;97508.63;;;14.69;72.03
11212;BME280;5663;50.864;12.096;2022-09-27T11:09:51;97512.16;;;14.77;72.08
11212;BME280;5663;50.864;12.096;2022-09-27T11:12:35;97491.16;;;14.69;71.64
11212;BME280;5663;50.864;12.096;2022-09-27T11:19:04;97529.75;;;15.11;71.81
11212;BME280;5663;50.864;12.096;2022-09-27T11:21:46;97526.06;;;15.22;71.66
11212;BME280;5663;50.864;12.096;2022-09-27T11:24:46;97522.53;;;15.31;71.36
11212;BME280;5663;50.864;12.096;2022-09-27T11:27:46;97518.47;;;15.37;71.12
11212;BME280;5663;50.864;12.096;2022-09-27T11:30:24;97510.97;;;15.42;70.72
11212;BME280;5663;50.864;12.096;2022-09-27T11:33:48;97526.00;;;15.40;70.43
11212;BME280;5663;50.864;12.096;2022-09-27T11:36:33;97523.66;;;15.28;70.30
11212;BME280;5663;50.864;12.096;2022-09-27T11:39:09;97533.56;;;15.17;70.17
11212;BME280;5663;50.864;12.096;2022-09-27T11:42:27;97526.34;;;14.93;69.79
11212;BME280;5663;50.864;12.096;2022-09-27T11:45:19;97522.59;;;14.77;69.51
11212;BME280;5663;50.864;12.096;2022-09-27T11:48:01;97528.75;;;14.68;69.61
11212;BME280;5663;50.864;12.096;2022-09-27T11:51:07;97522.53;;;14.69;70.03
11212;BME280;5663;50.864;12.096;2022-09-27T11:53:58;97519.09;;;14.87;70.83
11212;BME280;5663;50.864;12.096;2022-09-27T11:56:40;97516.28;;;15.06;71.35
11212;BME280;5663;50.864;12.096;2022-09-27T11:59:33;97503.16;;;15.24;71.03
11212;BME280;5663;50.864;12.096;2022-09-27T12:02:21;97501.09;;;15.36;70.88
11212;BME280;5663;50.864;12.096;2022-09-27T12:05:07;97497.72;;;15.43;70.58
11212;BME280;5663;50.864;12.096;2022-09-27T12:07:47;97504.97;;;15.49;69.82
11212;BME280;5663;50.864;12.096;2022-09-27T12:10:23;97502.34;;;15.49;69.13
11212;BME280;5663;50.864;12.096;2022-09-27T12:12:55;97502.88;;;15.53;69.31
11212;BME280;5663;50.864;12.096;2022-09-27T12:15:28;97513.66;;;15.50;69.72
11212;BME280;5663;50.864;12.096;2022-09-27T12:18:21;97509.19;;;15.42;69.40
11212;BME280;5663;50.864;12.096;2022-09-27T12:20:53;97504.34;;;15.30;69.98
11212;BME280;5663;50.864;12.096;2022-09-27T12:23:30;97526.59;;;15.25;69.12
11212;BME280;5663;50.864;12.096;2022-09-27T12:26:05;97514.38;;;15.08;69.20
11212;BME280;5663;50.864;12.096;2022-09-27T12:28:40;97531.41;;;15.12;69.61
11212;BME280;5663;50.864;12.096;2022-09-27T12:31:20;97524.84;;;15.08;69.78
11212;BME280;5663;50.864;12.096;2022-09-27T12:33:59;97529.09;;;15.09;70.37
11212;BME280;5663;50.864;12.096;2022-09-27T12:36:35;97526.00;;;15.14;70.26
11212;BME280;5663;50.864;12.096;2022-09-27T12:39:16;97517.63;;;15.10;70.07
11212;BME280;5663;50.864;12.096;2022-09-27T12:41:50;97528.53;;;15.23;70.50
11212;BME280;5663;50.864;12.096;2022-09-27T12:44:31;97521.16;;;15.45;71.07
11212;BME280;5663;50.864;12.096;2022-09-27T12:47:42;97524.25;;;15.66;70.44
11212;BME280;5663;50.864;12.096;2022-09-27T12:50:23;97522.69;;;15.82;70.86
11212;BME280;5663;50.864;12.096;2022-09-27T12:53:03;97513.91;;;15.99;70.99
11212;BME280;5663;50.864;12.096;2022-09-27T12:56:02;97515.94;;;16.13;70.42
11212;BME280;5663;50.864;12.096;2022-09-27T12:59:01;97525.78;;;16.19;69.34
11212;BME280;5663;50.864;12.096;2022-09-27T13:01:46;97516.09;;;16.12;67.85
11212;BME280;5663;50.864;12.096;2022-09-27T13:08:18;97507.69;;;15.92;67.89
11212;BME280;5663;50.864;12.096;2022-09-27T13:11:02;97507.56;;;15.75;68.39
11212;BME280;5663;50.864;12.096;2022-09-27T13:13:35;97510.47;;;15.64;67.70
11212;BME280;5663;50.864;12.096;2022-09-27T13:16:07;97517.38;;;15.65;67.68
11212;BME280;5663;50.864;12.096;2022-09-27T13:18:54;97521.97;;;15.71;68.19
11212;BME280;5663;50.864;12.096;2022-09-27T13:21:55;97515.81;;;15.81;67.30
11212;BME280;5663;50.864;12.096;2022-09-27T13:24:47;97505.69;;;15.94;66.92
11212;BME280;5663;50.864;12.096;2022-09-27T13:27:42;97515.25;;;16.11;67.43
11212;BME280;5663;50.864;12.096;2022-09-27T13:30:48;97513.34;;;16.21;67.55
11212;BME280;5663;50.864;12.096;2022-09-27T13:33:44;97511.72;;;16.20;65.93
11212;BME280;5663;50.864;12.096;2022-09-27T13:36:43;97519.56;;;16.20;64.86
11212;BME280;5663;50.864;12.096;2022-09-27T13:39:37;97518.06;;;16.18;63.43
11212;BME280;5663;50.864;12.096;2022-09-27T13:42:20;97509.38;;;16.09;63.86
11212;BME280;5663;50.864;12.096;2022-09-27T13:45:22;97515.56;;;16.00;62.62
11212;BME280;5663;50.864;12.096;2022-09-27T13:47:57;97509.63;;;15.90;62.81
11212;BME280;5663;50.864;12.096;2022-09-27T13:50:58;97514.56;;;15.93;63.29
11212;BME280;5663;50.864;12.096;2022-09-27T13:53:35;97514.84;;;15.90;62.52
11212;BME280;5663;50.864;12.096;2022-09-27T13:59:51;97522.38;;;15.85;62.50
11212;BME280;5663;50.864;12.096;2022-09-27T14:02:44;97519.38;;;15.80;62.19
11212;BME280;5663;50.864;12.096;2022-09-27T14:05:27;97520.34;;;15.70;61.80
11212;BME280;5663;50.864;12.096;2022-09-27T14:08:19;97528.50;;;15.67;61.34
11212;BME280;5663;50.864;12.096;2022-09-27T14:10:51;97524.25;;;15.66;61.64
11212;BME280;5663;50.864;12.096;2022-09-27T14:13:25;97535.81;;;15.64;60.79
11212;BME280;5663;50.864;12.096;2022-09-27T14:16:02;97537.28;;;15.58;60.43
11212;BME280;5663;50.864;12.096;2022-09-27T14:18:34;97546.72;;;15.51;60.12
11212;BME280;5663;50.864;12.096;2022-09-27T14:21:16;97540.25;;;15.37;59.71
11212;BME280;5663;50.864;12.096;2022-09-27T14:24:22;97542.91;;;15.19;60.33
11212;BME280;5663;50.864;12.096;2022-09-27T14:30:15;97513.63;;;14.98;61.10
11212;BME280;5663;50.864;12.096;2022-09-27T14:32:50;97554.00;;;15.13;60.78